KEIR

Eugene Island

Eugene Island, Louisiana, USA
METAR KEIR 160055Z AUTO 33016KT 9SM OVC025 14/10 A3014 RMK A01
Observed Flight Rules
Dec-16 @ 00:55 UTC (21 minutes ago) Marginal Visual Flight Rules
Wind Visibility Clouds
330° at 16 knots 9 miles
  • Overcast at 2,500' AGL
Temperatures Readings
Current 14°C / 57°F
Dewpoint 10°C / 50°F
Humidity 77%
Altimeter 30.14" Hg
Pressure 1021 hPa
Elevation 28
METAR KEIR 160055Z AUTO 33016KT 9SM OVC025 14/10 A3014 RMK A01
Observed Flight Rules
Dec-16 @ 00:55 UTC
(21 minutes ago)
MVFR
Wind Visibility
330° at 16 knots 9 miles
Clouds
  • Overcast at 2,500' AGL
Temperature Dewpoint
14°C / 57°F 10°C / 50°F
Humidity Altimeter Pressure
77% 30.14" Hg 1021 hPa